Airfield :
LOGIN :

Register | Disclaimer

   EN    FR    IT 

 










Legend :    VFR   Marginal VFR   IFR   Intensive IFR   Very Intensive IFR
Visi :
Ceiling :
>= 8 km
>= 3000ft
5 to 8 km
1000 to 3000 ft
1500m to 5 km
500 to 1000 ft
800 to 1500m
200 to 500 ft
< 800m
< 200 ft
Symbols :   Thunderstorms  Fog  Heavy snow  Heavy precipitations  Wind > 20 kt
SIGMETs :     Misc.  Thunderstorms  Icing  Turbulence  Mountain Waves  Volcanic Ashes






- Airport Elevation : 140 ft
- IATA code : NYO


ESKN - Skavsta

CURRENT METAR :
  • 090420Z 19004KT CAVOK 05/01 Q1012

EXPIRED METARs :
  • 090350Z 16004KT CAVOK 03/01 Q1011
  • 090320Z VRB02KT CAVOK 03/00 Q1012
  • 090250Z 22002KT CAVOK 02/01 Q1012
  • 090220Z 21002KT CAVOK 02/M00 Q1012
  • 090150Z VRB02KT CAVOK 02/00 Q1012

TAF TAF ESKN
Valid from the 09 at 00:00 until the 10 at 00:00 UTC


082330Z 0900/0924 18008KT CAVOK
BECMG 0910/0912 RA BKN008
TEMPO 0912/0916 17015G25KT 4000 -RADZ SCT008 BKN015
BECMG 0916/0918 MIFG NSC
PROB40 0920/0924 2000 BCFG



MET'MAP, your aeronautical weather chart ! - Copyright ORBIFLY December 2007 - Disclaimer

ORBIFLY MET'MAP TEAM :

Programming & Development : Alexandra Zaïnal
Concept & original design : Baudouin d'Aumeries
Assistance for programming : Marc-Olivier Méhu
Technical & hardware support : Manuel Goepfert

Contact : metmap@orbifly.com




SOURCES & CREDITS :

   NOAA